Time;durP1;ratioP1;P1;durP2;ratioP2;P2;SDS_P1;SDS_P2;PMS_P1;PMS_P2;Temp;Humidity;BMP_temperature;BMP_pressure;BME280_temperature;BME280_humidity;BME280_pressure;Samples;Min_cycle;Max_cycle;Signal;HPM_P1;HPM_P2
2023/09/24 00:02:08;;;;;;;12.2;4.6;;;;;;;;;;;;;-79
2023/09/24 00:32:09;;;;;;;16.1;4.2;;;;;;;;;;;;;-80
2023/09/24 01:02:11;;;;;;;12.9;4.1;;;;;;;;;;;;;-80
2023/09/24 01:32:12;;;;;;;14.7;4.1;;;;;;;;;;;;;-78
2023/09/24 02:02:14;;;;;;;14.3;4.2;;;;;;;;;;;;;-80
2023/09/24 02:32:16;;;;;;;9.5;3.9;;;;;;;;;;;;;-79
2023/09/24 03:02:16;;;;;;;11.3;3.8;;;;;;;;;;;;;-81
2023/09/24 03:32:18;;;;;;;14.7;4;;;;;;;;;;;;;-78
2023/09/24 04:02:18;;;;;;;13.5;5.1;;;;;;;;;;;;;-78
2023/09/24 04:32:19;;;;;;;10.7;4.7;;;;;;;;;;;;;-80
2023/09/24 05:02:21;;;;;;;13.3;4;;;;;;;;;;;;;-80
2023/09/24 05:32:22;;;;;;;14;4.5;;;;;;;;;;;;;-80
2023/09/24 06:02:26;;;;;;;15;6.9;;;;;;;;;;;;;-79
2023/09/24 06:32:28;;;;;;;14.2;5.1;;;;;;;;;;;;;-80
2023/09/24 07:02:25;;;;;;;10.7;3.5;;;;;;;;;;;;;-79
2023/09/24 07:32:26;;;;;;;13.4;3.9;;;;;;;;;;;;;-80
2023/09/24 08:02:27;;;;;;;8.6;3.3;;;;;;;;;;;;;-78
2023/09/24 08:32:31;;;;;;;8.2;2.6;;;;;;;;;;;;;-80
2023/09/24 09:02:31;;;;;;;5.6;2.1;;;;;;;;;;;;;-79
2023/09/24 09:32:39;;;;;;;7.6;2;;;;;;;;;;;;;-80
2023/09/24 10:02:36;;;;;;;6;2;;;;;;;;;;;;;-80
2023/09/24 10:32:50;;;;;;;7.6;2;;;;;;;;;;;;;-83
2023/09/24 11:02:47;;;;;;;5.8;1.9;;;;;;;;;;;;;-79
2023/09/24 11:32:43;;;;;;;3.9;1.5;;;;;;;;;;;;;-78
2023/09/24 12:02:52;;;;;;;5.7;1.8;;;;;;;;;;;;;-77
2023/09/24 12:32:49;;;;;;;5.1;1.9;;;;;;;;;;;;;-78
2023/09/24 13:02:52;;;;;;;5.2;1.6;;;;;;;;;;;;;-78
2023/09/24 13:32:55;;;;;;;6.3;1.9;;;;;;;;;;;;;-78
2023/09/24 14:02:56;;;;;;;6.9;1.9;;;;;;;;;;;;;-79
2023/09/24 14:33:02;;;;;;;5;1.7;;;;;;;;;;;;;-78
2023/09/24 15:03:03;;;;;;;7.2;1.7;;;;;;;;;;;;;-79
2023/09/24 15:33:06;;;;;;;4.1;1.6;;;;;;;;;;;;;-78
2023/09/24 16:03:08;;;;;;;3.2;1.3;;;;;;;;;;;;;-78
2023/09/24 16:33:11;;;;;;;5.5;1.4;;;;;;;;;;;;;-78
2023/09/24 17:03:15;;;;;;;2.6;1.3;;;;;;;;;;;;;-77
2023/09/24 17:33:17;;;;;;;4.7;1.5;;;;;;;;;;;;;-78
2023/09/24 18:03:19;;;;;;;3.2;1.4;;;;;;;;;;;;;-79
2023/09/24 18:33:21;;;;;;;3.4;1.7;;;;;;;;;;;;;-79
2023/09/24 19:03:23;;;;;;;3.9;1.7;;;;;;;;;;;;;-79
2023/09/24 19:33:25;;;;;;;4.5;1.9;;;;;;;;;;;;;-78
2023/09/24 20:03:27;;;;;;;4.4;2;;;;;;;;;;;;;-78
2023/09/24 20:33:29;;;;;;;5.2;2.3;;;;;;;;;;;;;-78
2023/09/24 21:03:31;;;;;;;4.5;2.5;;;;;;;;;;;;;-79
2023/09/24 21:33:32;;;;;;;7.1;2.6;;;;;;;;;;;;;-78
2023/09/24 22:03:35;;;;;;;5.8;2.6;;;;;;;;;;;;;-79
2023/09/24 22:33:36;;;;;;;5.7;2.8;;;;;;;;;;;;;-80
2023/09/24 23:03:38;;;;;;;5.2;2.6;;;;;;;;;;;;;-80
2023/09/24 23:33:39;;;;;;;7.3;2.8;;;;;;;;;;;;;-81
